Startpagina
METAR-TAF:

METAR-TAF

Vliegvelden :

Liege Airport

Luik, België

breedte: 50-39N, lengte: 005-27E, hoogte: 186 m

Actueel weer

Dit bericht is 10 minuten geleden gemaakt, om 04:50 UTC
Wind 1 kt uit het zuidoosten
Temperatuur -2°C
Vochtigheid 86%
Druk 1026 hPa
Zicht 10 km of meer
geen wolken onder 1500 m en geen cumulonimbus

METAR: EBLG 070450Z 13001KT CAVOK M02/M04 Q1026 NOSIG

Tijdstip: 06:00 (05:00 UTC)

Verwachting

Dit bericht is 5 uur en het 40 minuten geleden gemaakt, om 23:20 UTC
Verwachting geldig van 07 om 00 UTC tot 08 om 06 UTC
Wind 4 kt uit het noordoosten
Zicht 10 km of meer
geen wolken onder 1500 m en geen cumulonimbus
Kans 30% :
Tijdelijke
van 08 om 04 UTC tot 08 om 06 UTC
Zicht: 3000 m
nevel, Ondiepe mist

TAF: EBLG 062320Z 0700/0806 04004KT CAVOK PROB30 TEMPO 0804/0806 3000 BR MIFG

Waarnemingen en weersverwachtingen van meer dan 4000 vliegvelden (METAR en TAF).

De beschikbare stations zijn de gele en rode punten op de kaart.

Ga met uw muis naar het station om de naam te zien.

Klik dan om waarnemingen en weersverwachtingen te zien.

kaart wijzigen: klik op de groene knoppen met een zwart kruis om in te zoomen, op de groene knop met een streepje om uit te zoomen of op de groene pijlen voor aangrenzende kaarten.


METAR-TAF: